createdAt,value
2018-06-08T00:01:26.666Z,100.00
2018-06-08T00:03:55.317Z,100.00
2018-06-08T00:06:24.173Z,100.00
2018-06-08T00:08:52.447Z,100.00
2018-06-08T00:11:20.838Z,100.00
2018-06-08T00:13:49.582Z,99.48
2018-06-08T00:16:24.672Z,100.00
2018-06-08T00:18:52.975Z,100.00
2018-06-08T00:21:21.364Z,100.00
2018-06-08T00:23:50.297Z,100.00
2018-06-08T00:26:19.189Z,100.00
2018-06-08T00:28:47.915Z,100.00
2018-06-08T00:31:16.171Z,100.00
2018-06-08T00:33:50.164Z,100.00
2018-06-08T00:36:18.296Z,100.00
2018-06-08T00:38:46.658Z,100.00
2018-06-08T00:41:15.027Z,100.00
2018-06-08T00:43:43.161Z,100.00
2018-06-08T00:46:11.685Z,100.00
2018-06-08T00:48:39.970Z,100.00
2018-06-08T00:51:08.087Z,100.00
2018-06-08T00:53:36.165Z,100.00
2018-06-08T00:56:04.397Z,100.00
2018-06-08T00:58:32.754Z,100.00
2018-06-08T01:01:00.823Z,100.00
2018-06-08T01:03:28.965Z,100.00
2018-06-08T01:05:57.227Z,100.00
2018-06-08T01:08:25.341Z,100.00
2018-06-08T01:10:53.470Z,100.00
2018-06-08T01:13:21.563Z,100.00
2018-06-08T01:15:49.803Z,100.00
2018-06-08T01:18:17.893Z,100.00
2018-06-08T01:20:46.058Z,100.00
2018-06-08T01:23:14.778Z,100.00
2018-06-08T01:25:42.878Z,100.00
2018-06-08T01:28:10.980Z,100.00
2018-06-08T01:30:39.139Z,100.00
2018-06-08T01:33:07.340Z,100.00
2018-06-08T01:35:35.582Z,100.00
2018-06-08T01:38:03.739Z,100.00
2018-06-08T01:40:31.844Z,100.00
2018-06-08T01:42:59.965Z,100.00
2018-06-08T01:45:28.115Z,100.00
2018-06-08T01:47:57.270Z,100.00
2018-06-08T01:50:25.414Z,100.00
2018-06-08T01:52:53.575Z,100.00
2018-06-08T01:55:21.855Z,100.00
2018-06-08T01:57:50.924Z,100.00
2018-06-08T02:00:19.185Z,100.00
2018-06-08T02:02:47.275Z,100.00
2018-06-08T02:05:16.008Z,100.00
2018-06-08T02:07:44.132Z,100.00
2018-06-08T02:10:12.303Z,100.00
2018-06-08T02:12:40.693Z,100.00
2018-06-08T02:15:08.846Z,99.97
2018-06-08T02:17:36.980Z,98.84
2018-06-08T02:20:05.071Z,100.00
2018-06-08T02:22:33.282Z,100.00
2018-06-08T02:25:01.410Z,98.87
2018-06-08T02:27:29.486Z,98.40
2018-06-08T02:29:57.572Z,100.00
2018-06-08T02:32:25.674Z,100.00
2018-06-08T02:34:53.803Z,100.00
2018-06-08T02:37:22.014Z,100.00
2018-06-08T02:39:50.197Z,99.50
2018-06-08T02:42:18.338Z,100.00
2018-06-08T02:44:46.540Z,100.00
2018-06-08T02:47:14.711Z,100.00
2018-06-08T02:49:42.883Z,100.00
2018-06-08T02:52:11.016Z,100.00
2018-06-08T02:54:39.122Z,100.00
2018-06-08T02:57:07.331Z,100.00
2018-06-08T02:59:35.459Z,100.00
2018-06-08T03:02:03.665Z,100.00
2018-06-08T03:04:31.732Z,100.00
2018-06-08T03:06:59.952Z,100.00
2018-06-08T03:09:28.057Z,100.00
2018-06-08T03:11:56.303Z,100.00
2018-06-08T03:14:24.720Z,100.00
2018-06-08T03:16:52.936Z,100.00
2018-06-08T03:19:22.233Z,100.00
2018-06-08T03:21:50.318Z,100.00
2018-06-08T03:24:18.407Z,100.00
2018-06-08T03:26:46.479Z,100.00
2018-06-08T03:29:14.621Z,100.00
2018-06-08T03:31:42.723Z,100.00
2018-06-08T03:34:10.876Z,100.00
2018-06-08T03:36:39.101Z,100.00
2018-06-08T03:39:08.232Z,100.00
2018-06-08T03:41:36.485Z,100.00
2018-06-08T03:44:04.629Z,100.00
2018-06-08T03:46:32.749Z,100.00
2018-06-08T03:49:00.967Z,100.00
2018-06-08T03:51:29.117Z,100.00
2018-06-08T03:53:57.748Z,100.00
2018-06-08T03:56:26.892Z,100.00
2018-06-08T03:58:55.086Z,100.00
2018-06-08T04:01:23.222Z,100.00
2018-06-08T04:03:51.412Z,100.00
2018-06-08T04:06:19.732Z,100.00
2018-06-08T04:08:48.083Z,100.00
2018-06-08T04:11:16.322Z,100.00
2018-06-08T04:13:45.022Z,100.00
2018-06-08T04:16:13.143Z,100.00
2018-06-08T04:18:43.063Z,100.00
2018-06-08T04:21:11.917Z,98.85
2018-06-08T04:23:40.323Z,99.26
2018-06-08T04:26:08.702Z,100.00
2018-06-08T04:28:36.907Z,99.61
2018-06-08T04:31:05.822Z,100.00
2018-06-08T04:33:34.240Z,98.35
2018-06-08T04:36:02.814Z,98.79
2018-06-08T04:38:31.043Z,97.84
2018-06-08T04:40:59.324Z,98.08
2018-06-08T04:43:27.526Z,97.15
2018-06-08T04:45:56.443Z,98.37
2018-06-08T04:48:24.899Z,97.83
2018-06-08T04:50:53.074Z,96.95
2018-06-08T04:53:21.706Z,96.39
2018-06-08T04:55:50.045Z,96.80
2018-06-08T04:58:18.386Z,95.03
2018-06-08T05:00:46.598Z,96.62
2018-06-08T05:03:14.863Z,96.14
2018-06-08T05:05:43.090Z,98.46
2018-06-08T05:08:11.712Z,94.04
2018-06-08T05:10:39.898Z,96.24
2018-06-08T05:13:08.107Z,93.64
2018-06-08T05:15:36.182Z,94.67
2018-06-08T05:18:04.411Z,91.96
2018-06-08T05:20:32.893Z,92.09
2018-06-08T05:23:00.990Z,91.55
2018-06-08T05:25:29.261Z,89.81
2018-06-08T05:27:57.473Z,90.74
2018-06-08T05:30:26.431Z,88.76
2018-06-08T05:32:54.570Z,89.49
2018-06-08T05:35:22.853Z,88.12
2018-06-08T05:37:51.065Z,88.70
2018-06-08T05:40:19.193Z,89.67
2018-06-08T05:42:47.395Z,85.91
2018-06-08T05:45:15.540Z,80.11
2018-06-08T05:47:43.678Z,77.11
2018-06-08T05:50:11.980Z,75.71
2018-06-08T05:52:40.128Z,73.33
2018-06-08T05:55:08.295Z,75.17
2018-06-08T05:57:37.021Z,72.69
2018-06-08T06:00:05.545Z,71.52
2018-06-08T06:02:33.790Z,70.50
2018-06-08T06:05:01.952Z,67.87
2018-06-08T06:07:30.079Z,66.76
2018-06-08T06:09:58.313Z,63.79
2018-06-08T06:12:26.475Z,61.71
2018-06-08T06:14:54.685Z,67.92
2018-06-08T06:17:22.794Z,68.65
2018-06-08T06:19:50.956Z,63.12
2018-06-08T06:22:19.114Z,59.78
2018-06-08T06:24:47.308Z,57.37
2018-06-08T06:27:15.498Z,62.40
2018-06-08T06:29:43.694Z,64.04
2018-06-08T06:32:11.819Z,58.78
2018-06-08T06:34:40.380Z,62.76
2018-06-08T06:37:08.692Z,65.39
2018-06-08T06:39:36.906Z,66.07
2018-06-08T06:42:05.187Z,64.92
2018-06-08T06:44:33.450Z,58.71
2018-06-08T06:47:01.665Z,55.77
2018-06-08T06:49:29.911Z,56.13
2018-06-08T06:51:58.109Z,56.19
2018-06-08T06:54:26.339Z,54.95
2018-06-08T06:56:54.654Z,64.28
2018-06-08T06:59:22.973Z,65.93
2018-06-08T07:01:51.164Z,67.20
2018-06-08T07:04:19.477Z,68.57
2018-06-08T07:06:47.519Z,63.38
2018-06-08T07:09:15.617Z,66.75
2018-06-08T07:11:44.040Z,71.66
2018-06-08T07:14:12.189Z,67.93
2018-06-08T07:16:40.437Z,69.48
2018-06-08T07:19:13.034Z,71.48
2018-06-08T07:21:41.160Z,72.75
2018-06-08T07:24:09.429Z,74.92
2018-06-08T07:26:37.678Z,76.13
2018-06-08T07:29:05.854Z,77.84
2018-06-08T07:31:34.089Z,79.12
2018-06-08T07:34:02.260Z,78.83
2018-06-08T07:36:30.553Z,77.81
2018-06-08T07:38:58.750Z,78.30
2018-06-08T07:41:26.994Z,79.44
2018-06-08T07:43:55.049Z,78.69
2018-06-08T07:46:23.303Z,79.45
2018-06-08T07:48:51.447Z,77.24
2018-06-08T07:51:19.683Z,77.11
2018-06-08T07:53:48.196Z,76.37
2018-06-08T07:56:16.472Z,76.18
2018-06-08T07:58:44.640Z,76.32
2018-06-08T08:01:12.790Z,75.88
2018-06-08T08:03:41.067Z,74.38
2018-06-08T08:06:09.281Z,72.48
2018-06-08T08:08:37.418Z,73.43
2018-06-08T08:11:05.545Z,73.74
2018-06-08T08:13:33.750Z,73.40
2018-06-08T08:16:01.823Z,69.42
2018-06-08T08:18:29.937Z,66.47
2018-06-08T08:20:58.156Z,70.74
2018-06-08T08:23:26.253Z,69.75
2018-06-08T08:25:55.139Z,74.42
2018-06-08T08:28:23.288Z,68.17
2018-06-08T08:30:51.802Z,69.31
2018-06-08T08:33:20.037Z,69.91
2018-06-08T08:35:48.235Z,71.46
2018-06-08T08:38:16.335Z,70.66
2018-06-08T08:40:44.518Z,70.67
2018-06-08T08:43:12.667Z,71.89
2018-06-08T08:45:40.673Z,71.69
2018-06-08T08:48:08.748Z,71.44
2018-06-08T08:50:36.821Z,69.76
2018-06-08T08:53:05.124Z,73.01
2018-06-08T08:55:33.496Z,72.70
2018-06-08T08:58:01.629Z,73.38
2018-06-08T09:00:29.794Z,70.17
2018-06-08T09:02:58.006Z,70.25
2018-06-08T09:05:26.427Z,68.32
2018-06-08T09:07:54.525Z,65.81
2018-06-08T09:10:22.697Z,67.58
2018-06-08T09:12:50.804Z,68.66
2018-06-08T09:15:19.004Z,70.80
2018-06-08T09:17:47.370Z,70.75
2018-06-08T09:20:15.487Z,70.59
2018-06-08T09:22:43.565Z,69.70
2018-06-08T09:25:11.794Z,67.60
2018-06-08T09:27:39.951Z,69.87
2018-06-08T09:30:08.143Z,70.18
2018-06-08T09:32:36.289Z,69.89
2018-06-08T09:35:04.483Z,69.29
2018-06-08T09:37:32.581Z,69.62
2018-06-08T09:40:00.797Z,68.24
2018-06-08T09:42:28.921Z,69.39
2018-06-08T09:44:57.485Z,69.01
2018-06-08T09:47:25.596Z,66.95
2018-06-08T09:49:53.702Z,67.71
2018-06-08T09:52:21.851Z,62.78
2018-06-08T09:54:50.021Z,62.60
2018-06-08T09:57:18.136Z,62.30
2018-06-08T09:59:46.224Z,61.86
2018-06-08T10:02:14.428Z,63.51
2018-06-08T10:04:42.537Z,64.01
2018-06-08T10:07:10.756Z,65.48
2018-06-08T10:09:38.836Z,66.12
2018-06-08T10:12:07.029Z,67.83
2018-06-08T10:14:35.273Z,66.47
2018-06-08T10:17:03.413Z,64.79
2018-06-08T10:19:31.522Z,66.89
2018-06-08T10:21:59.963Z,68.40
2018-06-08T10:24:28.138Z,65.99
2018-06-08T10:26:56.972Z,63.30
2018-06-08T10:29:29.536Z,61.42
2018-06-08T10:31:57.785Z,60.78
2018-06-08T10:34:26.247Z,60.74
2018-06-08T10:36:54.578Z,58.56
2018-06-08T10:39:22.698Z,59.89
2018-06-08T10:41:50.808Z,60.97
2018-06-08T10:44:18.978Z,60.09
2018-06-08T10:46:47.149Z,59.35
2018-06-08T10:49:15.385Z,60.12
2018-06-08T10:51:44.233Z,59.60
2018-06-08T10:54:13.103Z,57.88
2018-06-08T10:56:41.241Z,57.73
2018-06-08T10:59:09.364Z,57.46
2018-06-08T11:01:37.505Z,54.96
2018-06-08T11:04:05.742Z,59.01
2018-06-08T11:06:33.921Z,58.74
2018-06-08T11:09:02.533Z,58.51
2018-06-08T11:11:30.602Z,58.92
2018-06-08T11:13:58.828Z,58.69
2018-06-08T11:16:27.032Z,57.82
2018-06-08T11:18:55.209Z,56.62
2018-06-08T11:21:23.376Z,56.20
2018-06-08T11:23:51.598Z,56.23
2018-06-08T11:26:19.755Z,55.90
2018-06-08T11:28:48.024Z,57.89
2018-06-08T11:31:16.102Z,57.49
2018-06-08T11:33:44.279Z,59.93
2018-06-08T11:36:12.422Z,58.91
2018-06-08T11:38:40.637Z,58.43
2018-06-08T11:41:08.897Z,59.20
2018-06-08T11:43:37.117Z,58.01
2018-06-08T11:46:06.162Z,57.79
2018-06-08T11:48:34.250Z,58.35
2018-06-08T11:51:02.473Z,60.37
2018-06-08T11:53:30.653Z,60.01
2018-06-08T11:55:58.816Z,60.86
2018-06-08T11:58:26.829Z,58.88
2018-06-08T12:01:01.679Z,59.96
2018-06-08T12:03:29.930Z,61.49
2018-06-08T12:05:58.106Z,59.83
2018-06-08T12:08:26.303Z,57.50
2018-06-08T12:10:54.577Z,56.71
2018-06-08T12:13:22.685Z,56.42
2018-06-08T12:15:50.852Z,58.52
2018-06-08T12:18:18.989Z,59.88
2018-06-08T12:20:47.197Z,59.55
2018-06-08T12:23:15.226Z,58.53
2018-06-08T12:25:43.614Z,57.33
2018-06-08T12:28:12.027Z,55.67
2018-06-08T12:30:40.317Z,55.74
2018-06-08T12:33:08.670Z,57.05
2018-06-08T12:35:36.902Z,56.57
2018-06-08T12:38:05.145Z,53.96
2018-06-08T12:40:33.316Z,52.96
2018-06-08T12:43:01.553Z,53.18
2018-06-08T12:45:29.699Z,53.33
2018-06-08T12:47:57.839Z,52.60
2018-06-08T12:50:26.027Z,53.00
2018-06-08T12:52:54.095Z,52.08
2018-06-08T12:55:22.273Z,52.94
2018-06-08T12:57:50.489Z,52.52
2018-06-08T13:00:18.645Z,51.73
2018-06-08T13:02:46.750Z,49.55
2018-06-08T13:05:15.191Z,50.22
2018-06-08T13:07:43.441Z,50.11
2018-06-08T13:10:11.984Z,49.96
2018-06-08T13:12:40.285Z,51.54
2018-06-08T13:15:08.470Z,51.92
2018-06-08T13:17:36.616Z,52.19
2018-06-08T13:20:05.031Z,52.92
2018-06-08T13:22:33.597Z,51.21
2018-06-08T13:25:01.787Z,52.42
2018-06-08T13:27:30.061Z,52.01
2018-06-08T13:29:58.226Z,51.29
2018-06-08T13:32:26.462Z,51.73
2018-06-08T13:34:54.625Z,53.38
2018-06-08T13:37:22.854Z,49.92
2018-06-08T13:39:51.049Z,51.19
2018-06-08T13:42:19.387Z,50.92
2018-06-08T13:44:47.626Z,52.08
2018-06-08T13:47:16.313Z,50.23
2018-06-08T13:49:44.561Z,52.79
2018-06-08T13:52:12.775Z,52.39
2018-06-08T13:54:41.014Z,53.13
2018-06-08T13:57:09.253Z,52.75
2018-06-08T13:59:37.498Z,54.01
2018-06-08T14:02:05.600Z,54.44
2018-06-08T14:04:33.821Z,55.85
2018-06-08T14:07:02.036Z,52.82
2018-06-08T14:09:30.244Z,51.64
2018-06-08T14:11:58.478Z,52.34
2018-06-08T14:14:26.590Z,54.06
2018-06-08T14:16:54.846Z,52.76
2018-06-08T14:19:23.106Z,51.64
2018-06-08T14:21:51.227Z,51.79
2018-06-08T14:24:19.982Z,52.14
2018-06-08T14:26:48.169Z,50.28
2018-06-08T14:29:16.331Z,49.63
2018-06-08T14:31:44.558Z,51.18
2018-06-08T14:34:12.762Z,50.30
2018-06-08T14:36:40.994Z,51.15
2018-06-08T14:39:09.169Z,50.44
2018-06-08T14:41:37.348Z,51.80
2018-06-08T14:44:05.509Z,50.93
2018-06-08T14:46:33.702Z,51.35
2018-06-08T14:49:02.066Z,51.58
2018-06-08T14:51:30.427Z,51.10
2018-06-08T14:53:58.624Z,48.96
2018-06-08T14:56:26.747Z,48.84
2018-06-08T14:58:54.875Z,49.04
2018-06-08T15:01:23.579Z,49.63
2018-06-08T15:03:51.778Z,48.28
2018-06-08T15:06:19.932Z,48.65
2018-06-08T15:08:48.187Z,48.72
2018-06-08T15:11:16.375Z,49.17
2018-06-08T15:13:44.656Z,49.59
2018-06-08T15:16:12.953Z,49.87
2018-06-08T15:18:41.207Z,48.41
2018-06-08T15:21:09.362Z,48.73
2018-06-08T15:23:37.805Z,48.92
2018-06-08T15:26:06.009Z,49.91
2018-06-08T15:28:34.144Z,48.11
2018-06-08T15:31:02.353Z,48.45
2018-06-08T15:33:30.456Z,48.15
2018-06-08T15:35:58.725Z,50.13
2018-06-08T15:38:27.390Z,50.96
2018-06-08T15:40:55.597Z,50.06
2018-06-08T15:43:23.830Z,48.70
2018-06-08T15:45:52.109Z,49.64
2018-06-08T15:48:20.346Z,47.94
2018-06-08T15:50:48.491Z,48.59
2018-06-08T15:53:16.657Z,48.63
2018-06-08T15:55:44.820Z,47.37
2018-06-08T15:58:12.915Z,48.50
2018-06-08T16:00:41.243Z,48.73
2018-06-08T16:03:09.370Z,48.31
2018-06-08T16:05:37.573Z,48.52
2018-06-08T16:08:05.859Z,48.29
2018-06-08T16:10:34.024Z,49.24
2018-06-08T16:13:02.270Z,48.14
2018-06-08T16:15:30.950Z,47.75
2018-06-08T16:17:59.186Z,50.30
2018-06-08T16:20:27.623Z,48.94
2018-06-08T16:22:55.772Z,49.80
2018-06-08T16:25:23.972Z,50.10
2018-06-08T16:27:56.322Z,49.06
2018-06-08T16:30:24.530Z,49.36
2018-06-08T16:32:52.669Z,48.35
2018-06-08T16:35:20.937Z,49.13
2018-06-08T16:37:49.307Z,46.69
2018-06-08T16:40:17.656Z,46.75
2018-06-08T16:42:45.951Z,47.94
2018-06-08T16:45:14.216Z,46.86
2018-06-08T16:47:54.755Z,46.90
2018-06-08T16:50:22.982Z,48.17
2018-06-08T16:52:51.254Z,46.97
2018-06-08T16:55:19.580Z,47.37
2018-06-08T16:57:47.835Z,48.26
2018-06-08T17:00:15.957Z,49.01
2018-06-08T17:02:44.157Z,48.53
2018-06-08T17:05:12.408Z,48.15
2018-06-08T17:07:40.516Z,47.97
2018-06-08T17:10:08.716Z,49.22
2018-06-08T17:12:36.851Z,49.24
2018-06-08T17:15:05.173Z,48.58
2018-06-08T17:17:33.646Z,50.00
2018-06-08T17:20:01.891Z,51.05
2018-06-08T17:22:30.119Z,51.26
2018-06-08T17:24:58.328Z,50.97
2018-06-08T17:27:26.732Z,49.72
2018-06-08T17:29:54.938Z,50.16
2018-06-08T17:32:23.081Z,49.61
2018-06-08T17:34:51.284Z,49.86
2018-06-08T17:37:19.523Z,51.10
2018-06-08T17:39:47.739Z,51.17
2018-06-08T17:42:15.929Z,52.77
2018-06-08T17:44:44.184Z,52.49
2018-06-08T17:47:12.372Z,52.07
2018-06-08T17:49:40.682Z,51.33
2018-06-08T17:52:08.819Z,53.27
2018-06-08T17:54:37.861Z,53.06
2018-06-08T17:57:06.282Z,54.30
2018-06-08T17:59:34.739Z,52.43
2018-06-08T18:02:03.214Z,52.24
2018-06-08T18:04:32.236Z,54.17
2018-06-08T18:07:00.512Z,53.18
2018-06-08T18:09:29.251Z,53.68
2018-06-08T18:11:57.631Z,53.92
2018-06-08T18:14:25.905Z,54.66
2018-06-08T18:16:54.227Z,55.01
2018-06-08T18:19:22.477Z,55.35
2018-06-08T18:21:50.853Z,56.49
2018-06-08T18:24:19.011Z,57.63
2018-06-08T18:26:47.217Z,56.90
2018-06-08T18:29:15.512Z,56.39
2018-06-08T18:31:43.956Z,57.38
2018-06-08T18:34:12.321Z,55.80
2018-06-08T18:36:41.205Z,55.30
2018-06-08T18:39:09.438Z,56.09
2018-06-08T18:41:37.590Z,56.53
2018-06-08T18:44:05.764Z,55.60
2018-06-08T18:46:34.038Z,55.16
2018-06-08T18:49:02.432Z,56.81
2018-06-08T18:51:30.782Z,55.83
2018-06-08T18:53:59.021Z,56.54
2018-06-08T18:56:27.158Z,56.40
2018-06-08T18:58:55.273Z,57.78
2018-06-08T19:01:23.465Z,58.71
2018-06-08T19:03:52.634Z,60.92
2018-06-08T19:06:20.766Z,61.43
2018-06-08T19:08:48.930Z,60.03
2018-06-08T19:11:17.180Z,62.89
2018-06-08T19:13:45.570Z,64.31
2018-06-08T19:16:13.824Z,63.83
2018-06-08T19:18:42.020Z,66.28
2018-06-08T19:21:10.192Z,65.51
2018-06-08T19:23:38.603Z,66.95
2018-06-08T19:26:06.878Z,63.48
2018-06-08T19:28:35.154Z,61.83
2018-06-08T19:31:03.460Z,61.25
2018-06-08T19:33:31.550Z,60.35
2018-06-08T19:35:59.862Z,61.16
2018-06-08T19:38:28.140Z,61.98
2018-06-08T19:40:56.362Z,61.71
2018-06-08T19:43:24.536Z,59.89
2018-06-08T19:45:52.873Z,57.45
2018-06-08T19:48:21.040Z,58.47
2018-06-08T19:50:49.258Z,60.09
2018-06-08T19:53:17.573Z,65.00
2018-06-08T19:55:46.156Z,73.06
2018-06-08T19:58:14.322Z,76.39
2018-06-08T20:00:42.462Z,76.53
2018-06-08T20:03:10.699Z,78.51
2018-06-08T20:05:38.948Z,79.59
2018-06-08T20:08:07.250Z,82.01
2018-06-08T20:10:35.737Z,82.77
2018-06-08T20:13:04.054Z,84.51
2018-06-08T20:15:32.345Z,86.77
2018-06-08T20:18:00.531Z,87.79
2018-06-08T20:20:28.779Z,89.85
2018-06-08T20:22:56.996Z,87.87
2018-06-08T20:25:25.241Z,88.95
2018-06-08T20:27:53.440Z,90.71
2018-06-08T20:30:21.699Z,89.26
2018-06-08T20:32:50.536Z,92.41
2018-06-08T20:35:18.738Z,93.34
2018-06-08T20:37:47.289Z,92.84
2018-06-08T20:40:15.478Z,89.98
2018-06-08T20:42:43.703Z,90.18
2018-06-08T20:45:11.994Z,92.21
2018-06-08T20:47:40.114Z,93.05
2018-06-08T20:50:08.965Z,94.50
2018-06-08T20:52:37.104Z,96.41
2018-06-08T20:55:05.409Z,95.72
2018-06-08T20:57:33.562Z,95.11
2018-06-08T21:00:01.722Z,97.05
2018-06-08T21:02:29.984Z,97.61
2018-06-08T21:04:58.122Z,95.32
2018-06-08T21:07:26.320Z,94.81
2018-06-08T21:09:54.989Z,98.05
2018-06-08T21:12:23.161Z,99.33
2018-06-08T21:14:51.231Z,99.10
2018-06-08T21:17:19.428Z,98.72
2018-06-08T21:19:47.782Z,97.73
2018-06-08T21:22:15.959Z,95.20
2018-06-08T21:24:45.292Z,96.24
2018-06-08T21:27:13.453Z,96.28
2018-06-08T21:29:41.601Z,97.64
2018-06-08T21:32:10.581Z,97.09
2018-06-08T21:34:38.591Z,95.49
2018-06-08T21:37:06.858Z,97.05
2018-06-08T21:39:35.010Z,97.21
2018-06-08T21:42:03.147Z,97.13
2018-06-08T21:44:31.376Z,97.49
2018-06-08T21:46:59.540Z,97.53
2018-06-08T21:49:27.830Z,95.82
2018-06-08T21:51:56.410Z,96.79
2018-06-08T21:54:24.649Z,96.63
2018-06-08T21:56:52.823Z,97.34
2018-06-08T21:59:21.216Z,96.96
2018-06-08T22:01:50.162Z,96.73
2018-06-08T22:04:18.400Z,96.08
2018-06-08T22:06:46.661Z,98.27
2018-06-08T22:09:17.727Z,98.52
2018-06-08T22:11:46.239Z,98.03
2018-06-08T22:14:14.565Z,96.49
2018-06-08T22:16:42.848Z,98.56
2018-06-08T22:19:11.095Z,97.42
2018-06-08T22:21:39.393Z,98.00
2018-06-08T22:24:07.580Z,97.27
2018-06-08T22:26:35.919Z,99.18
2018-06-08T22:29:04.074Z,98.61
2018-06-08T22:31:32.290Z,98.65
2018-06-08T22:34:00.967Z,98.17
2018-06-08T22:36:29.169Z,99.79
2018-06-08T22:38:57.487Z,98.43
2018-06-08T22:41:25.678Z,99.89
2018-06-08T22:43:53.822Z,99.77
2018-06-08T22:46:22.111Z,99.07
2018-06-08T22:48:50.357Z,98.17
2018-06-08T22:51:18.507Z,96.98
2018-06-08T22:53:46.635Z,98.81
2018-06-08T22:56:14.973Z,99.85
2018-06-08T22:58:43.107Z,100.00
2018-06-08T23:01:11.293Z,99.63
2018-06-08T23:03:39.481Z,99.82
2018-06-08T23:06:07.642Z,99.08
2018-06-08T23:08:40.392Z,97.63
2018-06-08T23:11:08.998Z,97.39
2018-06-08T23:13:37.302Z,97.72
2018-06-08T23:16:07.137Z,97.31
2018-06-08T23:18:35.486Z,98.45
2018-06-08T23:21:04.150Z,98.44
2018-06-08T23:23:32.539Z,97.74
2018-06-08T23:26:01.002Z,97.86
2018-06-08T23:28:29.403Z,98.76
2018-06-08T23:30:58.181Z,99.94
2018-06-08T23:33:27.081Z,99.75
2018-06-08T23:35:56.533Z,100.00
2018-06-08T23:38:24.896Z,99.48
2018-06-08T23:40:53.023Z,100.00
2018-06-08T23:43:21.150Z,100.00
2018-06-08T23:45:49.382Z,100.00
2018-06-08T23:48:17.686Z,100.00
2018-06-08T23:50:45.973Z,100.00
2018-06-08T23:53:14.485Z,100.00
2018-06-08T23:55:43.578Z,100.00
2018-06-08T23:58:14.483Z,100.00
